createdAt,value
2022-09-22T00:01:13.884Z,78.36
2022-09-22T00:03:46.391Z,78.18
2022-09-22T00:06:21.452Z,78.47
2022-09-22T00:08:53.436Z,78.36
2022-09-22T00:11:51.080Z,78.22
2022-09-22T00:14:26.124Z,78.39
2022-09-22T00:16:55.601Z,78.74
2022-09-22T00:19:31.238Z,78.86
2022-09-22T00:21:57.972Z,78.89
2022-09-22T00:24:26.084Z,78.96
2022-09-22T00:26:57.776Z,78.85
2022-09-22T00:29:26.544Z,79.31
2022-09-22T00:31:54.116Z,79.29
2022-09-22T00:34:24.078Z,79.26
2022-09-22T00:36:51.005Z,79.10
2022-09-22T00:39:18.853Z,79.55
2022-09-22T00:41:49.172Z,79.35
2022-09-22T00:44:28.091Z,79.21
2022-09-22T00:47:35.367Z,79.50
2022-09-22T00:50:18.379Z,79.60
2022-09-22T00:52:51.369Z,79.43
2022-09-22T00:55:26.293Z,79.74
2022-09-22T00:57:54.049Z,79.58
2022-09-22T01:00:20.898Z,79.93
2022-09-22T01:02:53.170Z,79.69
2022-09-22T01:05:21.658Z,79.70
2022-09-22T01:07:48.996Z,80.13
2022-09-22T01:10:15.797Z,80.12
2022-09-22T01:12:52.083Z,80.20
2022-09-22T01:15:31.066Z,80.11
2022-09-22T01:18:25.680Z,80.08
2022-09-22T01:21:11.611Z,80.06
2022-09-22T01:23:50.511Z,79.99
2022-09-22T01:26:29.489Z,80.04
2022-09-22T01:29:26.992Z,79.78
2022-09-22T01:32:02.946Z,79.94
2022-09-22T01:34:36.517Z,80.22
2022-09-22T01:37:10.288Z,80.21
2022-09-22T01:39:42.074Z,80.39
2022-09-22T01:42:43.206Z,79.99
2022-09-22T01:45:15.319Z,80.19
2022-09-22T01:47:45.076Z,80.30
2022-09-22T01:50:28.173Z,80.66
2022-09-22T01:52:56.419Z,80.74
2022-09-22T01:55:30.369Z,80.51
2022-09-22T01:58:01.970Z,80.71
2022-09-22T02:00:29.187Z,80.71
2022-09-22T02:03:12.087Z,81.04
2022-09-22T02:05:44.134Z,81.15
2022-09-22T02:08:17.139Z,80.88
2022-09-22T02:10:46.290Z,81.16
2022-09-22T02:13:13.003Z,81.19
2022-09-22T02:15:58.684Z,81.15
2022-09-22T02:18:29.519Z,80.95
2022-09-22T02:20:56.304Z,81.21
2022-09-22T02:23:23.049Z,81.06
2022-09-22T02:25:49.829Z,81.13
2022-09-22T02:28:18.961Z,81.04
2022-09-22T02:30:59.099Z,80.71
2022-09-22T02:33:38.293Z,80.69
2022-09-22T02:36:37.411Z,80.51
2022-09-22T02:39:13.833Z,80.91
2022-09-22T02:41:52.628Z,80.72
2022-09-22T02:44:22.396Z,80.54
2022-09-22T02:46:57.233Z,80.23
2022-09-22T02:49:25.169Z,80.45
2022-09-22T02:51:52.958Z,80.04
2022-09-22T02:54:19.635Z,80.37
2022-09-22T02:56:46.369Z,80.11
2022-09-22T02:59:13.177Z,80.32
2022-09-22T03:01:40.140Z,80.49
2022-09-22T03:04:06.953Z,80.67
2022-09-22T03:06:33.857Z,80.65
2022-09-22T03:09:00.806Z,80.63
2022-09-22T03:11:27.662Z,81.01
2022-09-22T03:13:54.819Z,80.53
2022-09-22T03:16:21.682Z,81.08
2022-09-22T03:18:48.482Z,80.81
2022-09-22T03:21:15.296Z,80.96
2022-09-22T03:23:41.969Z,80.98
2022-09-22T03:26:11.318Z,80.74
2022-09-22T03:28:38.060Z,80.82
2022-09-22T03:31:04.871Z,80.79
2022-09-22T03:33:31.599Z,80.61
2022-09-22T03:35:58.389Z,80.57
2022-09-22T03:38:25.110Z,80.41
2022-09-22T03:40:52.843Z,80.54
2022-09-22T03:43:20.183Z,80.31
2022-09-22T03:45:47.871Z,80.51
2022-09-22T03:48:54.511Z,80.51
2022-09-22T03:51:24.274Z,80.50
2022-09-22T03:53:56.725Z,80.50
2022-09-22T03:56:44.011Z,80.79
2022-09-22T03:59:11.656Z,80.62
2022-09-22T04:01:38.398Z,80.71
2022-09-22T04:04:05.234Z,80.50
2022-09-22T04:06:32.297Z,80.53
2022-09-22T04:08:59.069Z,80.59
2022-09-22T04:11:25.839Z,80.51
2022-09-22T04:13:52.596Z,80.17
2022-09-22T04:16:19.282Z,80.09
2022-09-22T04:18:46.213Z,80.37
2022-09-22T04:21:13.123Z,80.01
2022-09-22T04:23:39.892Z,80.55
2022-09-22T04:26:06.614Z,80.72
2022-09-22T04:28:33.429Z,80.51
2022-09-22T04:31:00.480Z,80.72
2022-09-22T04:37:57.696Z,81.06
2022-09-22T04:40:52.696Z,81.13
2022-09-22T04:43:19.440Z,81.46
2022-09-22T04:45:47.335Z,81.18
2022-09-22T04:48:17.615Z,81.11
2022-09-22T04:50:47.948Z,81.38
2022-09-22T04:53:15.273Z,81.10
2022-09-22T04:55:42.069Z,81.34
2022-09-22T04:58:09.699Z,81.51
2022-09-22T05:00:36.810Z,81.20
2022-09-22T05:03:08.718Z,81.44
2022-09-22T05:05:35.896Z,81.15
2022-09-22T05:08:05.951Z,81.42
2022-09-22T05:10:34.508Z,81.22
2022-09-22T05:13:02.793Z,81.48
2022-09-22T05:15:34.710Z,81.58
2022-09-22T05:18:01.681Z,81.20
2022-09-22T05:20:28.520Z,81.33
2022-09-22T05:22:55.700Z,81.19
2022-09-22T05:25:22.893Z,81.07
2022-09-22T05:27:53.984Z,81.10
2022-09-22T05:30:23.989Z,81.09
2022-09-22T05:32:51.442Z,81.00
2022-09-22T05:35:20.419Z,80.93
2022-09-22T05:37:48.967Z,81.17
2022-09-22T05:40:16.496Z,80.77
2022-09-22T05:42:45.597Z,81.17
2022-09-22T05:45:12.518Z,80.87
2022-09-22T05:47:39.835Z,80.85
2022-09-22T05:50:07.818Z,81.08
2022-09-22T05:52:34.692Z,80.90
2022-09-22T05:55:01.820Z,81.28
2022-09-22T05:57:28.721Z,81.25
2022-09-22T05:59:55.660Z,81.39
2022-09-22T06:02:26.445Z,81.35
2022-09-22T06:04:53.822Z,81.63
2022-09-22T06:07:20.866Z,81.60
2022-09-22T06:09:48.670Z,81.39
2022-09-22T06:12:16.104Z,81.21
2022-09-22T06:14:43.088Z,81.67
2022-09-22T06:17:10.653Z,81.40
2022-09-22T06:19:38.297Z,81.35
2022-09-22T06:22:05.657Z,81.43
2022-09-22T06:24:32.516Z,81.40
2022-09-22T06:26:59.286Z,81.39
2022-09-22T06:29:26.648Z,81.04
2022-09-22T06:31:53.543Z,81.25
2022-09-22T06:34:20.291Z,81.33
2022-09-22T06:36:47.063Z,81.22
2022-09-22T06:39:14.421Z,81.12
2022-09-22T06:41:41.206Z,80.81
2022-09-22T06:44:12.779Z,80.82
2022-09-22T06:46:39.487Z,81.04
2022-09-22T06:49:06.231Z,81.16
2022-09-22T06:51:34.575Z,81.09
2022-09-22T06:54:06.413Z,80.65
2022-09-22T06:56:39.965Z,80.86
2022-09-22T06:59:11.102Z,80.57
2022-09-22T07:01:39.135Z,80.77
2022-09-22T07:04:06.177Z,80.37
2022-09-22T07:06:32.943Z,80.38
2022-09-22T07:08:59.911Z,80.25
2022-09-22T07:11:26.734Z,80.04
2022-09-22T07:13:54.414Z,79.95
2022-09-22T07:16:23.597Z,79.71
2022-09-22T07:18:55.155Z,79.37
2022-09-22T07:21:27.709Z,79.10
2022-09-22T07:23:55.658Z,79.33
2022-09-22T07:26:30.901Z,79.03
2022-09-22T07:28:59.718Z,78.85
2022-09-22T07:31:29.034Z,78.44
2022-09-22T07:33:56.777Z,78.50
2022-09-22T07:36:26.261Z,78.00
2022-09-22T07:38:54.865Z,78.10
2022-09-22T07:41:22.885Z,77.78
2022-09-22T07:43:51.577Z,77.39
2022-09-22T07:46:19.031Z,77.48
2022-09-22T07:48:48.037Z,76.93
2022-09-22T07:51:18.393Z,77.06
2022-09-22T07:53:47.184Z,76.52
2022-09-22T07:56:16.425Z,76.66
2022-09-22T07:58:50.113Z,75.96
2022-09-22T08:01:18.030Z,75.91
2022-09-22T08:03:47.406Z,75.70
2022-09-22T08:06:16.243Z,75.83
2022-09-22T08:08:46.262Z,75.55
2022-09-22T08:11:15.182Z,75.27
2022-09-22T08:13:44.233Z,75.08
2022-09-22T08:16:11.684Z,74.73
2022-09-22T08:18:39.934Z,74.32
2022-09-22T08:21:08.023Z,74.35
2022-09-22T08:23:35.199Z,73.73
2022-09-22T08:26:07.432Z,73.89
2022-09-22T08:28:34.710Z,73.25
2022-09-22T08:31:02.598Z,73.15
2022-09-22T08:33:32.296Z,72.78
2022-09-22T08:36:03.827Z,71.85
2022-09-22T08:38:31.603Z,71.60
2022-09-22T08:41:19.800Z,70.71
2022-09-22T08:43:55.392Z,70.35
2022-09-22T08:46:25.548Z,69.59
2022-09-22T08:49:15.063Z,69.41
2022-09-22T08:51:53.805Z,69.00
2022-09-22T08:54:24.897Z,68.24
2022-09-22T08:57:29.596Z,68.03
2022-09-22T09:00:05.787Z,67.42
2022-09-22T09:02:43.498Z,66.45
2022-09-22T09:05:32.719Z,65.87
2022-09-22T09:08:11.311Z,64.78
2022-09-22T09:10:53.756Z,64.15
2022-09-22T09:13:45.487Z,63.91
2022-09-22T09:16:32.982Z,62.70
2022-09-22T09:19:16.564Z,62.56
2022-09-22T09:21:51.013Z,62.83
2022-09-22T09:27:30.685Z,64.00
2022-09-22T09:30:18.085Z,64.53
2022-09-22T09:33:00.770Z,64.56
2022-09-22T09:35:39.621Z,64.21
2022-09-22T09:38:11.527Z,64.54
2022-09-22T09:40:38.417Z,64.31
2022-09-22T09:43:05.737Z,64.21
2022-09-22T09:46:11.818Z,63.69
2022-09-22T09:49:05.775Z,63.53
2022-09-22T09:51:40.957Z,62.87
2022-09-22T09:54:14.465Z,62.95
2022-09-22T09:57:02.858Z,62.06
2022-09-22T09:59:48.310Z,61.63
2022-09-22T10:02:19.843Z,61.48
2022-09-22T10:05:07.811Z,61.39
2022-09-22T10:07:43.914Z,61.52
2022-09-22T10:10:33.785Z,60.95
2022-09-22T10:13:00.459Z,60.54
2022-09-22T10:15:27.406Z,60.12
2022-09-22T10:17:54.251Z,60.05
2022-09-22T10:20:32.023Z,59.63
2022-09-22T10:23:20.863Z,59.57
2022-09-22T10:25:49.407Z,59.64
2022-09-22T10:28:18.355Z,59.68
2022-09-22T10:30:57.866Z,59.76
2022-09-22T10:33:24.684Z,59.26
2022-09-22T10:36:09.446Z,58.58
2022-09-22T10:38:40.919Z,58.29
2022-09-22T10:41:18.098Z,58.18
2022-09-22T10:47:15.266Z,57.72
2022-09-22T10:49:50.789Z,57.65
2022-09-22T10:52:23.407Z,57.50
2022-09-22T10:55:03.453Z,56.75
2022-09-22T10:58:01.292Z,56.59
2022-09-22T11:00:28.477Z,56.83
2022-09-22T11:03:23.245Z,56.60
2022-09-22T11:06:33.689Z,56.57
2022-09-22T11:09:26.974Z,55.63
2022-09-22T11:12:17.763Z,54.87
2022-09-22T11:14:50.670Z,54.51
2022-09-22T11:17:45.394Z,54.14
2022-09-22T11:20:18.424Z,53.28
2022-09-22T11:23:12.769Z,53.07
2022-09-22T11:26:02.032Z,53.06
2022-09-22T11:28:56.302Z,52.75
2022-09-22T11:31:46.911Z,51.55
2022-09-22T11:34:30.457Z,52.53
2022-09-22T11:37:25.906Z,51.89
2022-09-22T11:40:18.387Z,50.82
2022-09-22T11:43:20.728Z,50.10
2022-09-22T11:46:03.118Z,50.47
2022-09-22T11:48:35.938Z,50.64
2022-09-22T11:51:05.786Z,51.31
2022-09-22T11:53:47.271Z,51.80
2022-09-22T11:56:29.970Z,52.09
2022-09-22T11:59:03.405Z,51.74
2022-09-22T12:01:34.980Z,51.58
2022-09-22T12:04:39.649Z,51.23
2022-09-22T12:07:14.664Z,51.28
2022-09-22T12:09:46.901Z,51.41
2022-09-22T12:12:18.223Z,50.62
2022-09-22T12:14:57.194Z,50.88
2022-09-22T12:17:36.937Z,51.36
2022-09-22T12:20:18.255Z,51.76
2022-09-22T12:23:13.623Z,52.08
2022-09-22T12:25:48.833Z,52.25
2022-09-22T12:28:23.641Z,52.78
2022-09-22T12:31:05.177Z,52.99
2022-09-22T12:33:37.117Z,53.53
2022-09-22T12:36:04.579Z,53.73
2022-09-22T12:41:25.422Z,54.43
2022-09-22T12:43:52.347Z,54.33
2022-09-22T12:46:25.418Z,54.62
2022-09-22T12:48:52.455Z,55.06
2022-09-22T12:51:25.262Z,55.19
2022-09-22T12:53:52.320Z,55.25
2022-09-22T12:56:46.579Z,54.77
2022-09-22T12:59:38.514Z,52.96
2022-09-22T13:02:14.988Z,51.23
2022-09-22T13:04:42.909Z,49.86
2022-09-22T13:07:38.543Z,48.98
2022-09-22T13:10:26.674Z,48.30
2022-09-22T13:13:12.393Z,48.67
2022-09-22T13:15:51.933Z,47.44
2022-09-22T13:18:42.457Z,47.67
2022-09-22T13:21:12.246Z,48.33
2022-09-22T13:23:44.721Z,48.32
2022-09-22T13:26:13.502Z,48.63
2022-09-22T13:28:40.644Z,48.66
2022-09-22T13:31:17.805Z,49.32
2022-09-22T13:33:44.595Z,49.59
2022-09-22T13:36:16.538Z,49.61
2022-09-22T13:38:55.384Z,49.92
2022-09-22T13:41:24.317Z,50.25
2022-09-22T13:44:03.928Z,50.42
2022-09-22T13:46:44.717Z,50.82
2022-09-22T13:49:12.849Z,50.72
2022-09-22T13:51:39.869Z,51.17
2022-09-22T13:54:07.352Z,51.58
2022-09-22T13:56:34.337Z,51.57
2022-09-22T13:59:02.704Z,51.50
2022-09-22T14:01:30.603Z,51.38
2022-09-22T14:03:57.467Z,51.92
2022-09-22T14:06:26.936Z,52.06
2022-09-22T14:08:53.899Z,52.36
2022-09-22T14:11:24.227Z,52.50
2022-09-22T14:13:57.874Z,52.32
2022-09-22T14:16:44.056Z,52.50
2022-09-22T14:19:17.849Z,52.57
2022-09-22T14:21:56.108Z,53.00
2022-09-22T14:24:23.169Z,53.27
2022-09-22T14:26:54.154Z,53.37
2022-09-22T14:29:35.273Z,53.66
2022-09-22T14:32:14.068Z,53.41
2022-09-22T14:34:47.978Z,53.49
2022-09-22T14:37:34.365Z,54.02
2022-09-22T14:40:04.002Z,54.25
2022-09-22T14:42:32.074Z,54.31
2022-09-22T14:45:06.260Z,54.87
2022-09-22T14:47:39.605Z,54.80
2022-09-22T14:50:19.299Z,54.92
2022-09-22T14:52:57.891Z,55.25
2022-09-22T14:55:30.752Z,54.88
2022-09-22T14:57:57.806Z,54.73
2022-09-22T15:00:43.413Z,54.63
2022-09-22T15:03:23.394Z,54.52
2022-09-22T15:05:50.616Z,54.51
2022-09-22T15:08:25.463Z,54.02
2022-09-22T15:10:57.555Z,53.67
2022-09-22T15:13:39.922Z,53.09
2022-09-22T15:16:27.277Z,53.18
2022-09-22T15:18:54.017Z,52.20
2022-09-22T15:21:29.166Z,51.68
2022-09-22T15:23:57.183Z,50.79
2022-09-22T15:26:25.775Z,49.62
2022-09-22T15:28:54.551Z,49.30
2022-09-22T15:31:28.600Z,48.46
2022-09-22T15:33:56.490Z,47.41
2022-09-22T15:36:25.789Z,46.40
2022-09-22T15:38:59.410Z,45.39
2022-09-22T15:41:26.301Z,45.45
2022-09-22T15:43:53.242Z,44.80
2022-09-22T15:46:30.593Z,44.65
2022-09-22T15:49:03.443Z,44.14
2022-09-22T15:51:31.717Z,43.28
2022-09-22T15:53:59.383Z,42.89
2022-09-22T15:56:28.992Z,42.65
2022-09-22T15:58:59.230Z,42.59
2022-09-22T16:01:29.716Z,42.35
2022-09-22T16:04:00.296Z,41.64
2022-09-22T16:06:27.379Z,41.82
2022-09-22T16:08:55.416Z,42.18
2022-09-22T16:11:32.579Z,41.89
2022-09-22T16:14:03.712Z,41.86
2022-09-22T16:16:32.420Z,41.25
2022-09-22T16:19:00.103Z,40.57
2022-09-22T16:21:33.344Z,41.10
2022-09-22T16:24:03.946Z,41.13
2022-09-22T16:26:31.916Z,41.75
2022-09-22T16:28:59.183Z,42.02
2022-09-22T16:31:27.222Z,42.93
2022-09-22T16:34:02.001Z,42.96
2022-09-22T16:36:33.137Z,43.52
2022-09-22T16:39:02.556Z,44.03
2022-09-22T16:41:33.321Z,45.28
2022-09-22T16:44:01.032Z,47.46
2022-09-22T16:46:33.782Z,48.82
2022-09-22T16:53:16.306Z,49.86
2022-09-22T16:55:49.415Z,50.80
2022-09-22T16:58:16.191Z,50.62
2022-09-22T17:00:43.716Z,51.03
2022-09-22T17:03:10.462Z,52.17
2022-09-22T17:05:39.865Z,52.47
2022-09-22T17:08:08.335Z,52.61
2022-09-22T17:10:36.010Z,53.35
2022-09-22T17:13:04.940Z,53.50
2022-09-22T17:15:36.145Z,53.47
2022-09-22T17:18:04.277Z,54.53
2022-09-22T17:20:31.060Z,54.50
2022-09-22T17:22:57.988Z,55.19
2022-09-22T17:25:28.043Z,55.30
2022-09-22T17:27:55.063Z,55.96
2022-09-22T17:30:22.005Z,56.83
2022-09-22T17:32:49.144Z,57.50
2022-09-22T17:35:15.996Z,57.84
2022-09-22T17:37:42.877Z,57.86
2022-09-22T17:40:11.942Z,58.43
2022-09-22T17:42:38.871Z,59.27
2022-09-22T17:45:08.025Z,59.80
2022-09-22T17:47:53.405Z,60.23
2022-09-22T17:50:38.526Z,60.86
2022-09-22T17:53:50.063Z,61.00
2022-09-22T17:56:16.835Z,61.95
2022-09-22T17:58:43.840Z,62.04
2022-09-22T18:01:10.756Z,62.29
2022-09-22T18:03:37.451Z,62.88
2022-09-22T18:06:19.242Z,63.56
2022-09-22T18:08:45.930Z,63.62
2022-09-22T18:11:13.765Z,64.24
2022-09-22T18:13:40.514Z,64.69
2022-09-22T18:16:29.385Z,65.08
2022-09-22T18:18:56.566Z,65.35
2022-09-22T18:21:23.237Z,65.48
2022-09-22T18:23:49.932Z,65.71
2022-09-22T18:26:18.140Z,66.30
2022-09-22T18:28:44.841Z,66.57
2022-09-22T18:31:15.729Z,67.18
2022-09-22T18:33:43.632Z,67.38
2022-09-22T18:36:10.957Z,67.47
2022-09-22T18:38:39.176Z,67.68
2022-09-22T18:41:05.888Z,68.10
2022-09-22T18:49:50.177Z,69.27
2022-09-22T18:52:18.309Z,69.26
2022-09-22T18:54:44.993Z,69.80
2022-09-22T18:57:14.541Z,69.95
2022-09-22T18:59:41.227Z,69.96
2022-09-22T19:02:11.896Z,69.79
2022-09-22T19:04:39.037Z,69.93
2022-09-22T19:07:24.996Z,70.31
2022-09-22T19:09:53.043Z,70.39
2022-09-22T19:12:21.755Z,70.77
2022-09-22T19:14:56.721Z,71.07
2022-09-22T19:17:24.738Z,70.70
2022-09-22T19:19:51.844Z,71.20
2022-09-22T19:22:18.951Z,71.10
2022-09-22T19:24:46.400Z,71.50
2022-09-22T19:27:16.086Z,71.34
2022-09-22T19:29:42.835Z,71.98
2022-09-22T19:32:09.766Z,71.69
2022-09-22T19:34:36.668Z,71.80
2022-09-22T19:37:04.106Z,72.11
2022-09-22T19:39:32.341Z,72.42
2022-09-22T19:41:59.632Z,72.65
2022-09-22T19:44:27.290Z,72.64
2022-09-22T19:46:54.090Z,72.81
2022-09-22T19:49:22.026Z,72.76
2022-09-22T19:51:48.801Z,72.91
2022-09-22T19:54:15.581Z,72.87
2022-09-22T19:56:42.317Z,72.79
2022-09-22T19:59:09.052Z,72.86
2022-09-22T20:01:37.960Z,72.67
2022-09-22T20:04:05.381Z,72.90
2022-09-22T20:06:33.294Z,73.12
2022-09-22T20:09:02.922Z,73.41
2022-09-22T20:11:35.654Z,73.53
2022-09-22T20:14:20.640Z,73.80
2022-09-22T20:16:49.483Z,73.84
2022-09-22T20:19:16.259Z,74.04
2022-09-22T20:21:43.794Z,74.00
2022-09-22T20:24:13.550Z,73.88
2022-09-22T20:26:41.859Z,74.16
2022-09-22T20:29:09.652Z,74.06
2022-09-22T20:31:37.034Z,74.03
2022-09-22T20:34:05.865Z,74.41
2022-09-22T20:36:36.820Z,74.44
2022-09-22T20:39:04.587Z,74.23
2022-09-22T20:41:32.166Z,74.29
2022-09-22T20:43:58.987Z,74.35
2022-09-22T20:46:25.887Z,74.34
2022-09-22T20:48:55.521Z,74.14
2022-09-22T20:51:23.636Z,73.97
2022-09-22T20:53:50.477Z,73.97
2022-09-22T20:56:17.742Z,74.19
2022-09-22T20:58:45.875Z,74.27
2022-09-22T21:01:14.769Z,74.35
2022-09-22T21:03:41.840Z,74.21
2022-09-22T21:06:10.203Z,74.50
2022-09-22T21:08:57.178Z,74.76
2022-09-22T21:11:24.267Z,74.59
2022-09-22T21:13:56.683Z,74.65
2022-09-22T21:16:23.609Z,75.15
2022-09-22T21:18:51.865Z,75.22
2022-09-22T21:21:20.365Z,75.53
2022-09-22T21:23:48.931Z,75.15
2022-09-22T21:26:16.872Z,75.35
2022-09-22T21:28:43.669Z,75.37
2022-09-22T21:31:10.977Z,75.15
2022-09-22T21:33:37.932Z,75.01
2022-09-22T21:36:15.171Z,75.02
2022-09-22T21:38:43.054Z,74.87
2022-09-22T21:41:12.134Z,75.04
2022-09-22T21:43:39.189Z,75.08
2022-09-22T21:46:11.404Z,75.15
2022-09-22T21:48:38.212Z,75.17
2022-09-22T21:51:06.700Z,75.30
2022-09-22T21:53:34.965Z,75.19
2022-09-22T21:56:03.455Z,75.22
2022-09-22T21:58:32.903Z,75.49
2022-09-22T22:01:01.225Z,75.55
2022-09-22T22:03:30.934Z,75.23
2022-09-22T22:06:08.119Z,75.44
2022-09-22T22:08:41.383Z,75.38
2022-09-22T22:11:11.087Z,75.47
2022-09-22T22:13:39.033Z,75.21
2022-09-22T22:16:11.691Z,75.48
2022-09-22T22:18:39.035Z,75.49
2022-09-22T22:21:08.823Z,75.28
2022-09-22T22:23:41.503Z,75.27
2022-09-22T22:26:13.057Z,75.27
2022-09-22T22:28:44.214Z,75.28
2022-09-22T22:31:13.728Z,75.22
2022-09-22T22:33:42.265Z,75.00
2022-09-22T22:36:12.466Z,75.09
2022-09-22T22:38:40.134Z,74.88
2022-09-22T22:41:11.783Z,75.01
2022-09-22T22:43:39.321Z,74.94
2022-09-22T22:46:07.217Z,75.01
2022-09-22T22:48:35.805Z,75.17
2022-09-22T22:51:11.639Z,75.03
2022-09-22T22:53:38.574Z,75.42
2022-09-22T22:56:07.920Z,75.07
2022-09-22T22:58:36.282Z,75.25
2022-09-22T23:01:10.787Z,75.59
2022-09-22T23:03:41.298Z,75.46
2022-09-22T23:06:09.956Z,75.57
2022-09-22T23:08:37.065Z,75.67
2022-09-22T23:11:11.593Z,75.62
2022-09-22T23:13:40.621Z,75.69
2022-09-22T23:16:09.884Z,75.47
2022-09-22T23:18:39.104Z,75.80
2022-09-22T23:21:07.028Z,75.71
2022-09-22T23:23:34.332Z,75.25
2022-09-22T23:26:02.276Z,75.64
2022-09-22T23:28:30.767Z,75.56
2022-09-22T23:31:09.122Z,75.54
2022-09-22T23:33:37.951Z,75.52
2022-09-22T23:36:05.901Z,75.68
2022-09-22T23:38:34.528Z,75.56
2022-09-22T23:41:02.250Z,75.46
2022-09-22T23:43:30.043Z,75.69
2022-09-22T23:45:57.402Z,75.56
2022-09-22T23:48:25.726Z,75.53
2022-09-22T23:50:54.536Z,75.34
2022-09-22T23:53:23.608Z,75.55
2022-09-22T23:55:50.830Z,75.52
2022-09-22T23:58:17.910Z,75.43
